< < Back
Terminal Aerodrome Forecast


Current Version              Previous Versions:   1  2  3  4  5  6  7  8  9  

Terminal Aerodrome Forecast

779
FTUS42 KTAE 040522
TAFDHN
TAF
KDHN 040522Z 0406/0506 32008KT P6SM BKN050
     FM041400 32012G18KT P6SM SCT040
     FM050000 28005KT P6SM SKC=

Latest METAR

964
SAUS70 KWBC 041700 RRF
MTRDHN
METAR KDHN 041653Z 32011G19KT 10SM FEW050 22/08 A2988 RMK AO2 SLP113
T02220083


USA.gov is the U.S. government's official web portal to all federal, state and local government web resources and services.